sensor_id;sensor_type;location;lat;lon;timestamp;temperature;humidity
22966;DHT22;11649;48.090;9.754;2023-11-21T00:02:22;7.20;99.90
22966;DHT22;11649;48.090;9.754;2023-11-21T00:04:50;7.30;99.90
22966;DHT22;11649;48.090;9.754;2023-11-21T00:07:17;7.20;99.90
22966;DHT22;11649;48.090;9.754;2023-11-21T00:09:44;7.20;99.90
22966;DHT22;11649;48.090;9.754;2023-11-21T00:12:10;7.10;99.90
22966;DHT22;11649;48.090;9.754;2023-11-21T00:14:37;7.20;99.90
22966;DHT22;11649;48.090;9.754;2023-11-21T00:17:07;7.40;99.90
22966;DHT22;11649;48.090;9.754;2023-11-21T00:19:34;7.10;99.90
22966;DHT22;11649;48.090;9.754;2023-11-21T00:22:01;7.10;99.90
22966;DHT22;11649;48.090;9.754;2023-11-21T00:24:28;7.10;99.90
22966;DHT22;11649;48.090;9.754;2023-11-21T00:26:55;7.10;99.90
22966;DHT22;11649;48.090;9.754;2023-11-21T00:29:22;7.10;99.90
22966;DHT22;11649;48.090;9.754;2023-11-21T00:31:49;7.10;99.90
22966;DHT22;11649;48.090;9.754;2023-11-21T00:34:16;7.10;99.90
22966;DHT22;11649;48.090;9.754;2023-11-21T00:36:42;7.10;99.90
22966;DHT22;11649;48.090;9.754;2023-11-21T00:39:09;7.10;99.90
22966;DHT22;11649;48.090;9.754;2023-11-21T00:41:38;7.20;99.90
22966;DHT22;11649;48.090;9.754;2023-11-21T00:44:05;7.10;99.90
22966;DHT22;11649;48.090;9.754;2023-11-21T00:46:33;7.10;99.90
22966;DHT22;11649;48.090;9.754;2023-11-21T00:49:00;7.20;99.90
22966;DHT22;11649;48.090;9.754;2023-11-21T00:51:27;7.10;99.90
22966;DHT22;11649;48.090;9.754;2023-11-21T00:53:54;7.20;99.90
22966;DHT22;11649;48.090;9.754;2023-11-21T00:56:21;7.10;99.90
22966;DHT22;11649;48.090;9.754;2023-11-21T00:58:49;7.30;99.90
22966;DHT22;11649;48.090;9.754;2023-11-21T01:01:19;7.30;99.90
22966;DHT22;11649;48.090;9.754;2023-11-21T01:03:47;7.20;99.90
22966;DHT22;11649;48.090;9.754;2023-11-21T01:06:14;7.10;99.90
22966;DHT22;11649;48.090;9.754;2023-11-21T01:08:43;7.10;99.90
22966;DHT22;11649;48.090;9.754;2023-11-21T01:11:11;7.20;99.90
22966;DHT22;11649;48.090;9.754;2023-11-21T01:13:40;7.20;99.90
22966;DHT22;11649;48.090;9.754;2023-11-21T01:16:07;7.10;99.90
22966;DHT22;11649;48.090;9.754;2023-11-21T01:18:37;7.20;99.90
22966;DHT22;11649;48.090;9.754;2023-11-21T01:21:04;7.30;99.90
22966;DHT22;11649;48.090;9.754;2023-11-21T01:23:31;7.30;99.90
22966;DHT22;11649;48.090;9.754;2023-11-21T01:25:58;7.20;99.90
22966;DHT22;11649;48.090;9.754;2023-11-21T01:28:25;7.20;99.90
22966;DHT22;11649;48.090;9.754;2023-11-21T01:30:53;7.30;99.90
22966;DHT22;11649;48.090;9.754;2023-11-21T01:33:23;7.20;99.90
22966;DHT22;11649;48.090;9.754;2023-11-21T01:35:51;7.20;99.90
22966;DHT22;11649;48.090;9.754;2023-11-21T01:38:21;7.10;99.90
22966;DHT22;11649;48.090;9.754;2023-11-21T01:40:48;7.10;99.90
22966;DHT22;11649;48.090;9.754;2023-11-21T01:43:15;7.10;99.90
22966;DHT22;11649;48.090;9.754;2023-11-21T01:45:43;7.10;99.90
22966;DHT22;11649;48.090;9.754;2023-11-21T01:48:18;7.00;99.90
22966;DHT22;11649;48.090;9.754;2023-11-21T01:50:49;7.40;99.90
22966;DHT22;11649;48.090;9.754;2023-11-21T01:53:16;7.60;99.90
22966;DHT22;11649;48.090;9.754;2023-11-21T01:55:44;6.90;99.90
22966;DHT22;11649;48.090;9.754;2023-11-21T01:58:11;6.90;99.90
22966;DHT22;11649;48.090;9.754;2023-11-21T02:00:41;6.90;99.90
22966;DHT22;11649;48.090;9.754;2023-11-21T02:03:08;6.80;99.90
22966;DHT22;11649;48.090;9.754;2023-11-21T02:05:37;6.90;99.90
22966;DHT22;11649;48.090;9.754;2023-11-21T02:08:04;6.80;99.90
22966;DHT22;11649;48.090;9.754;2023-11-21T02:10:31;6.80;99.90
22966;DHT22;11649;48.090;9.754;2023-11-21T02:12:58;6.80;99.90
22966;DHT22;11649;48.090;9.754;2023-11-21T02:15:26;6.70;99.90
22966;DHT22;11649;48.090;9.754;2023-11-21T02:17:55;6.80;99.90
22966;DHT22;11649;48.090;9.754;2023-11-21T02:20:25;6.80;99.90
22966;DHT22;11649;48.090;9.754;2023-11-21T02:22:54;6.80;99.90
22966;DHT22;11649;48.090;9.754;2023-11-21T02:25:25;7.00;99.90
22966;DHT22;11649;48.090;9.754;2023-11-21T02:27:55;6.70;99.90
22966;DHT22;11649;48.090;9.754;2023-11-21T02:30:22;6.60;99.90
22966;DHT22;11649;48.090;9.754;2023-11-21T02:32:52;6.70;99.90
22966;DHT22;11649;48.090;9.754;2023-11-21T02:35:21;6.60;99.90
22966;DHT22;11649;48.090;9.754;2023-11-21T02:37:48;6.70;99.90
22966;DHT22;11649;48.090;9.754;2023-11-21T02:40:16;6.60;99.90
22966;DHT22;11649;48.090;9.754;2023-11-21T02:42:47;6.60;99.90
22966;DHT22;11649;48.090;9.754;2023-11-21T02:45:14;6.60;99.90
22966;DHT22;11649;48.090;9.754;2023-11-21T02:47:44;6.60;99.90
22966;DHT22;11649;48.090;9.754;2023-11-21T02:50:12;6.60;99.90
22966;DHT22;11649;48.090;9.754;2023-11-21T02:52:39;6.70;99.90
22966;DHT22;11649;48.090;9.754;2023-11-21T02:55:09;6.60;99.90
22966;DHT22;11649;48.090;9.754;2023-11-21T02:57:36;6.70;99.90
22966;DHT22;11649;48.090;9.754;2023-11-21T03:00:03;6.70;99.90
22966;DHT22;11649;48.090;9.754;2023-11-21T03:02:34;6.60;99.90
22966;DHT22;11649;48.090;9.754;2023-11-21T03:05:06;6.60;99.90
22966;DHT22;11649;48.090;9.754;2023-11-21T03:07:38;6.50;99.90
22966;DHT22;11649;48.090;9.754;2023-11-21T03:10:07;6.40;99.90
22966;DHT22;11649;48.090;9.754;2023-11-21T03:12:37;6.50;99.90
22966;DHT22;11649;48.090;9.754;2023-11-21T03:15:07;6.50;99.90
22966;DHT22;11649;48.090;9.754;2023-11-21T03:17:35;6.60;99.90
22966;DHT22;11649;48.090;9.754;2023-11-21T03:20:03;6.60;99.90
22966;DHT22;11649;48.090;9.754;2023-11-21T03:22:31;6.50;99.90
22966;DHT22;11649;48.090;9.754;2023-11-21T03:24:58;6.50;99.90
22966;DHT22;11649;48.090;9.754;2023-11-21T03:27:25;6.50;99.90
22966;DHT22;11649;48.090;9.754;2023-11-21T03:29:52;6.50;99.90
22966;DHT22;11649;48.090;9.754;2023-11-21T03:32:18;6.40;99.90
22966;DHT22;11649;48.090;9.754;2023-11-21T03:34:58;6.50;99.90
22966;DHT22;11649;48.090;9.754;2023-11-21T03:37:26;6.40;99.90
22966;DHT22;11649;48.090;9.754;2023-11-21T03:39:55;6.50;99.90
22966;DHT22;11649;48.090;9.754;2023-11-21T03:42:23;6.40;99.90
22966;DHT22;11649;48.090;9.754;2023-11-21T03:44:53;6.40;99.90
22966;DHT22;11649;48.090;9.754;2023-11-21T03:47:20;6.40;99.90
22966;DHT22;11649;48.090;9.754;2023-11-21T03:49:47;6.50;99.90
22966;DHT22;11649;48.090;9.754;2023-11-21T03:52:14;6.50;99.90
22966;DHT22;11649;48.090;9.754;2023-11-21T03:54:43;6.60;99.90
22966;DHT22;11649;48.090;9.754;2023-11-21T03:57:10;6.70;99.90
22966;DHT22;11649;48.090;9.754;2023-11-21T03:59:41;6.80;99.90
22966;DHT22;11649;48.090;9.754;2023-11-21T04:02:08;6.80;99.90
22966;DHT22;11649;48.090;9.754;2023-11-21T04:04:36;6.70;99.90
22966;DHT22;11649;48.090;9.754;2023-11-21T04:07:03;6.60;99.90
22966;DHT22;11649;48.090;9.754;2023-11-21T04:09:31;6.60;99.90
22966;DHT22;11649;48.090;9.754;2023-11-21T04:11:58;6.60;99.90
22966;DHT22;11649;48.090;9.754;2023-11-21T04:14:25;6.50;99.90
22966;DHT22;11649;48.090;9.754;2023-11-21T04:16:51;6.60;99.90
22966;DHT22;11649;48.090;9.754;2023-11-21T04:19:18;6.60;99.90
22966;DHT22;11649;48.090;9.754;2023-11-21T04:21:45;6.60;99.90
22966;DHT22;11649;48.090;9.754;2023-11-21T04:24:12;6.50;99.90
22966;DHT22;11649;48.090;9.754;2023-11-21T04:26:39;6.40;99.90
22966;DHT22;11649;48.090;9.754;2023-11-21T04:29:06;6.50;99.90
22966;DHT22;11649;48.090;9.754;2023-11-21T04:31:33;6.50;99.90
22966;DHT22;11649;48.090;9.754;2023-11-21T04:34:02;6.80;99.90
22966;DHT22;11649;48.090;9.754;2023-11-21T04:36:33;6.50;99.90
22966;DHT22;11649;48.090;9.754;2023-11-21T04:39:01;6.60;99.90
22966;DHT22;11649;48.090;9.754;2023-11-21T04:41:28;6.60;99.90
22966;DHT22;11649;48.090;9.754;2023-11-21T04:43:55;7.00;99.90
22966;DHT22;11649;48.090;9.754;2023-11-21T04:46:22;7.50;99.90
22966;DHT22;11649;48.090;9.754;2023-11-21T04:48:49;6.90;99.90
22966;DHT22;11649;48.090;9.754;2023-11-21T04:51:16;6.80;99.90
22966;DHT22;11649;48.090;9.754;2023-11-21T04:53:42;6.50;99.90
22966;DHT22;11649;48.090;9.754;2023-11-21T04:56:09;7.50;99.90
22966;DHT22;11649;48.090;9.754;2023-11-21T04:58:36;7.20;99.90
22966;DHT22;11649;48.090;9.754;2023-11-21T05:01:04;7.40;99.90
22966;DHT22;11649;48.090;9.754;2023-11-21T05:03:34;6.50;99.90
22966;DHT22;11649;48.090;9.754;2023-11-21T05:06:01;6.50;99.90
22966;DHT22;11649;48.090;9.754;2023-11-21T05:08:29;6.50;99.90
22966;DHT22;11649;48.090;9.754;2023-11-21T05:10:55;6.50;99.90
22966;DHT22;11649;48.090;9.754;2023-11-21T05:13:22;6.50;99.90
22966;DHT22;11649;48.090;9.754;2023-11-21T05:15:57;6.50;99.90
22966;DHT22;11649;48.090;9.754;2023-11-21T05:18:24;6.40;99.90
22966;DHT22;11649;48.090;9.754;2023-11-21T05:20:53;6.40;99.90
22966;DHT22;11649;48.090;9.754;2023-11-21T05:23:20;6.50;99.90
22966;DHT22;11649;48.090;9.754;2023-11-21T05:25:47;6.50;99.90
22966;DHT22;11649;48.090;9.754;2023-11-21T05:28:14;6.50;99.90
22966;DHT22;11649;48.090;9.754;2023-11-21T05:30:44;6.50;99.90
22966;DHT22;11649;48.090;9.754;2023-11-21T05:33:11;7.50;99.90
22966;DHT22;11649;48.090;9.754;2023-11-21T05:35:42;7.10;99.90
22966;DHT22;11649;48.090;9.754;2023-11-21T05:38:09;7.10;99.90
22966;DHT22;11649;48.090;9.754;2023-11-21T05:40:35;7.00;99.90
22966;DHT22;11649;48.090;9.754;2023-11-21T05:43:03;6.70;99.90
22966;DHT22;11649;48.090;9.754;2023-11-21T05:45:32;6.20;99.90
22966;DHT22;11649;48.090;9.754;2023-11-21T05:47:58;6.20;99.90
22966;DHT22;11649;48.090;9.754;2023-11-21T05:50:25;6.20;99.90
22966;DHT22;11649;48.090;9.754;2023-11-21T05:52:52;6.30;99.90
22966;DHT22;11649;48.090;9.754;2023-11-21T05:55:22;6.40;99.90
22966;DHT22;11649;48.090;9.754;2023-11-21T05:57:52;6.30;99.90
22966;DHT22;11649;48.090;9.754;2023-11-21T06:00:20;6.30;99.90
22966;DHT22;11649;48.090;9.754;2023-11-21T06:02:49;6.20;99.90
22966;DHT22;11649;48.090;9.754;2023-11-21T06:05:25;6.20;99.90
22966;DHT22;11649;48.090;9.754;2023-11-21T06:07:54;6.20;99.90
22966;DHT22;11649;48.090;9.754;2023-11-21T06:10:22;6.10;99.90
22966;DHT22;11649;48.090;9.754;2023-11-21T06:12:52;6.20;99.90
22966;DHT22;11649;48.090;9.754;2023-11-21T06:15:19;6.20;99.90
22966;DHT22;11649;48.090;9.754;2023-11-21T06:17:47;6.30;99.90
22966;DHT22;11649;48.090;9.754;2023-11-21T06:20:19;6.30;99.90
22966;DHT22;11649;48.090;9.754;2023-11-21T06:22:48;6.30;99.90
22966;DHT22;11649;48.090;9.754;2023-11-21T06:25:17;6.30;99.90
22966;DHT22;11649;48.090;9.754;2023-11-21T06:27:45;6.40;99.90
22966;DHT22;11649;48.090;9.754;2023-11-21T06:30:14;6.30;99.90
22966;DHT22;11649;48.090;9.754;2023-11-21T06:32:42;6.20;99.90
22966;DHT22;11649;48.090;9.754;2023-11-21T06:35:14;6.30;99.90
22966;DHT22;11649;48.090;9.754;2023-11-21T06:37:44;6.30;99.90
22966;DHT22;11649;48.090;9.754;2023-11-21T06:40:19;7.00;99.90
22966;DHT22;11649;48.090;9.754;2023-11-21T06:42:47;6.70;99.90
22966;DHT22;11649;48.090;9.754;2023-11-21T06:45:15;6.50;99.90
22966;DHT22;11649;48.090;9.754;2023-11-21T06:47:45;6.20;99.90
22966;DHT22;11649;48.090;9.754;2023-11-21T06:50:12;6.30;99.90
22966;DHT22;11649;48.090;9.754;2023-11-21T06:52:39;6.30;99.90
22966;DHT22;11649;48.090;9.754;2023-11-21T06:55:06;6.80;99.90
22966;DHT22;11649;48.090;9.754;2023-11-21T06:57:35;6.30;99.90
22966;DHT22;11649;48.090;9.754;2023-11-21T07:00:03;6.50;99.90
22966;DHT22;11649;48.090;9.754;2023-11-21T07:02:30;6.30;99.90
22966;DHT22;11649;48.090;9.754;2023-11-21T07:04:57;6.30;99.90
22966;DHT22;11649;48.090;9.754;2023-11-21T07:07:23;6.30;99.90
22966;DHT22;11649;48.090;9.754;2023-11-21T07:09:50;6.30;99.90
22966;DHT22;11649;48.090;9.754;2023-11-21T07:12:18;6.40;99.90
22966;DHT22;11649;48.090;9.754;2023-11-21T07:14:45;6.70;99.90
22966;DHT22;11649;48.090;9.754;2023-11-21T07:17:12;6.50;99.90
22966;DHT22;11649;48.090;9.754;2023-11-21T07:19:39;6.50;99.90
22966;DHT22;11649;48.090;9.754;2023-11-21T07:22:06;6.90;99.90
22966;DHT22;11649;48.090;9.754;2023-11-21T07:24:33;6.50;99.90
22966;DHT22;11649;48.090;9.754;2023-11-21T07:27:03;7.30;99.90
22966;DHT22;11649;48.090;9.754;2023-11-21T07:29:34;7.20;99.90
22966;DHT22;11649;48.090;9.754;2023-11-21T07:32:06;7.00;99.90
22966;DHT22;11649;48.090;9.754;2023-11-21T07:34:33;6.80;99.90
22966;DHT22;11649;48.090;9.754;2023-11-21T07:37:00;6.50;99.90
22966;DHT22;11649;48.090;9.754;2023-11-21T07:39:29;6.50;99.90
22966;DHT22;11649;48.090;9.754;2023-11-21T07:41:58;6.50;99.90
22966;DHT22;11649;48.090;9.754;2023-11-21T07:44:25;6.50;99.90
22966;DHT22;11649;48.090;9.754;2023-11-21T07:46:58;7.40;99.90
22966;DHT22;11649;48.090;9.754;2023-11-21T07:49:25;7.00;99.90
22966;DHT22;11649;48.090;9.754;2023-11-21T07:52:00;6.60;99.90
22966;DHT22;11649;48.090;9.754;2023-11-21T08:03:08;6.60;99.90
22966;DHT22;11649;48.090;9.754;2023-11-21T08:16:08;6.90;99.90
22966;DHT22;11649;48.090;9.754;2023-11-21T08:18:35;6.90;99.90
22966;DHT22;11649;48.090;9.754;2023-11-21T08:21:02;6.80;99.90
22966;DHT22;11649;48.090;9.754;2023-11-21T08:23:29;6.80;99.90
22966;DHT22;11649;48.090;9.754;2023-11-21T08:25:56;6.80;99.90
22966;DHT22;11649;48.090;9.754;2023-11-21T08:28:23;6.80;99.90
22966;DHT22;11649;48.090;9.754;2023-11-21T08:30:52;7.00;99.90
22966;DHT22;11649;48.090;9.754;2023-11-21T08:33:21;7.10;99.90
22966;DHT22;11649;48.090;9.754;2023-11-21T08:35:48;7.20;99.90
22966;DHT22;11649;48.090;9.754;2023-11-21T08:38:15;7.20;99.90
22966;DHT22;11649;48.090;9.754;2023-11-21T08:40:42;7.20;99.90
22966;DHT22;11649;48.090;9.754;2023-11-21T08:43:09;7.40;99.90
22966;DHT22;11649;48.090;9.754;2023-11-21T08:45:37;7.50;99.90
22966;DHT22;11649;48.090;9.754;2023-11-21T08:48:04;7.50;99.90
22966;DHT22;11649;48.090;9.754;2023-11-21T08:50:32;7.50;99.90
22966;DHT22;11649;48.090;9.754;2023-11-21T08:52:59;7.60;99.90
22966;DHT22;11649;48.090;9.754;2023-11-21T08:55:26;7.70;99.90
22966;DHT22;11649;48.090;9.754;2023-11-21T08:57:54;7.70;99.90
22966;DHT22;11649;48.090;9.754;2023-11-21T09:00:23;7.80;99.90
22966;DHT22;11649;48.090;9.754;2023-11-21T09:02:50;7.80;99.90
22966;DHT22;11649;48.090;9.754;2023-11-21T09:05:18;7.90;99.90
22966;DHT22;11649;48.090;9.754;2023-11-21T09:07:45;7.70;99.90
22966;DHT22;11649;48.090;9.754;2023-11-21T09:10:13;7.70;99.90
22966;DHT22;11649;48.090;9.754;2023-11-21T09:12:40;7.70;99.90
22966;DHT22;11649;48.090;9.754;2023-11-21T09:15:07;7.70;99.90
22966;DHT22;11649;48.090;9.754;2023-11-21T09:17:36;7.70;99.90
22966;DHT22;11649;48.090;9.754;2023-11-21T09:20:04;7.80;99.90
22966;DHT22;11649;48.090;9.754;2023-11-21T09:22:32;7.90;99.90
22966;DHT22;11649;48.090;9.754;2023-11-21T09:25:00;7.90;99.90
22966;DHT22;11649;48.090;9.754;2023-11-21T09:27:26;7.80;99.90
22966;DHT22;11649;48.090;9.754;2023-11-21T09:29:53;7.80;99.90
22966;DHT22;11649;48.090;9.754;2023-11-21T09:32:20;7.80;99.90
22966;DHT22;11649;48.090;9.754;2023-11-21T09:34:49;7.80;99.90
22966;DHT22;11649;48.090;9.754;2023-11-21T09:37:17;7.80;99.90
22966;DHT22;11649;48.090;9.754;2023-11-21T09:39:44;7.90;99.90
22966;DHT22;11649;48.090;9.754;2023-11-21T09:42:13;7.90;99.90
22966;DHT22;11649;48.090;9.754;2023-11-21T09:44:55;7.90;99.90
22966;DHT22;11649;48.090;9.754;2023-11-21T09:47:26;7.90;99.90
22966;DHT22;11649;48.090;9.754;2023-11-21T09:49:54;8.00;99.90
22966;DHT22;11649;48.090;9.754;2023-11-21T09:52:22;8.00;99.90
22966;DHT22;11649;48.090;9.754;2023-11-21T09:54:53;7.90;99.90
22966;DHT22;11649;48.090;9.754;2023-11-21T09:57:20;8.00;99.90
22966;DHT22;11649;48.090;9.754;2023-11-21T09:59:54;8.00;99.90
22966;DHT22;11649;48.090;9.754;2023-11-21T10:02:27;8.10;99.90
22966;DHT22;11649;48.090;9.754;2023-11-21T10:04:59;8.20;99.90
22966;DHT22;11649;48.090;9.754;2023-11-21T10:07:28;8.50;99.90
22966;DHT22;11649;48.090;9.754;2023-11-21T10:09:58;8.70;99.90
22966;DHT22;11649;48.090;9.754;2023-11-21T10:12:26;8.90;99.90
22966;DHT22;11649;48.090;9.754;2023-11-21T10:14:57;9.10;99.90
22966;DHT22;11649;48.090;9.754;2023-11-21T10:17:25;9.30;99.90
22966;DHT22;11649;48.090;9.754;2023-11-21T10:19:57;9.40;99.90
22966;DHT22;11649;48.090;9.754;2023-11-21T10:22:24;9.50;99.90
22966;DHT22;11649;48.090;9.754;2023-11-21T10:24:53;9.50;99.90
22966;DHT22;11649;48.090;9.754;2023-11-21T10:27:20;9.40;99.90
22966;DHT22;11649;48.090;9.754;2023-11-21T10:29:47;9.40;99.90
22966;DHT22;11649;48.090;9.754;2023-11-21T10:32:14;9.30;99.90
22966;DHT22;11649;48.090;9.754;2023-11-21T10:34:41;9.50;99.90
22966;DHT22;11649;48.090;9.754;2023-11-21T10:37:14;9.50;99.90
22966;DHT22;11649;48.090;9.754;2023-11-21T10:39:43;9.40;99.90
22966;DHT22;11649;48.090;9.754;2023-11-21T10:42:12;9.30;99.90
22966;DHT22;11649;48.090;9.754;2023-11-21T10:44:38;9.20;99.90
22966;DHT22;11649;48.090;9.754;2023-11-21T10:47:08;9.50;99.90
22966;DHT22;11649;48.090;9.754;2023-11-21T10:49:38;10.00;99.90
22966;DHT22;11649;48.090;9.754;2023-11-21T10:52:07;10.00;99.90
22966;DHT22;11649;48.090;9.754;2023-11-21T10:54:33;9.90;99.90
22966;DHT22;11649;48.090;9.754;2023-11-21T10:57:03;9.80;99.90
22966;DHT22;11649;48.090;9.754;2023-11-21T10:59:31;9.70;99.90
22966;DHT22;11649;48.090;9.754;2023-11-21T11:02:01;9.50;99.90
22966;DHT22;11649;48.090;9.754;2023-11-21T11:04:31;9.30;99.90
22966;DHT22;11649;48.090;9.754;2023-11-21T11:07:01;9.30;99.90
22966;DHT22;11649;48.090;9.754;2023-11-21T11:09:32;9.50;99.90
22966;DHT22;11649;48.090;9.754;2023-11-21T11:12:02;9.60;99.90
22966;DHT22;11649;48.090;9.754;2023-11-21T11:14:32;9.60;99.90
22966;DHT22;11649;48.090;9.754;2023-11-21T11:16:59;9.60;99.90
22966;DHT22;11649;48.090;9.754;2023-11-21T11:19:28;9.70;99.90
22966;DHT22;11649;48.090;9.754;2023-11-21T11:30:08;9.70;99.90
22966;DHT22;11649;48.090;9.754;2023-11-21T11:32:59;9.60;99.90
22966;DHT22;11649;48.090;9.754;2023-11-21T11:35:46;9.70;99.90
22966;DHT22;11649;48.090;9.754;2023-11-21T11:38:16;9.80;99.90
22966;DHT22;11649;48.090;9.754;2023-11-21T11:40:47;9.90;99.90
22966;DHT22;11649;48.090;9.754;2023-11-21T11:43:25;10.00;99.90
22966;DHT22;11649;48.090;9.754;2023-11-21T11:45:55;10.00;99.90
22966;DHT22;11649;48.090;9.754;2023-11-21T11:48:22;10.00;99.90
22966;DHT22;11649;48.090;9.754;2023-11-21T11:51:12;10.00;99.90
22966;DHT22;11649;48.090;9.754;2023-11-21T11:53:48;9.90;99.90
22966;DHT22;11649;48.090;9.754;2023-11-21T11:56:31;9.90;99.90
22966;DHT22;11649;48.090;9.754;2023-11-21T11:59:04;10.00;99.90
22966;DHT22;11649;48.090;9.754;2023-11-21T12:01:33;10.00;99.90
22966;DHT22;11649;48.090;9.754;2023-11-21T12:07:06;9.90;99.90
22966;DHT22;11649;48.090;9.754;2023-11-21T12:09:33;10.10;99.90
22966;DHT22;11649;48.090;9.754;2023-11-21T12:12:00;10.30;99.90
22966;DHT22;11649;48.090;9.754;2023-11-21T12:14:28;10.20;99.90
22966;DHT22;11649;48.090;9.754;2023-11-21T12:16:55;10.20;99.90
22966;DHT22;11649;48.090;9.754;2023-11-21T12:19:22;10.40;99.90
22966;DHT22;11649;48.090;9.754;2023-11-21T12:21:49;10.40;99.90
22966;DHT22;11649;48.090;9.754;2023-11-21T12:24:16;10.30;99.90
22966;DHT22;11649;48.090;9.754;2023-11-21T12:26:43;10.20;99.90
22966;DHT22;11649;48.090;9.754;2023-11-21T12:29:11;10.00;99.90
22966;DHT22;11649;48.090;9.754;2023-11-21T12:31:38;9.80;99.90
22966;DHT22;11649;48.090;9.754;2023-11-21T12:34:05;9.60;99.90
22966;DHT22;11649;48.090;9.754;2023-11-21T12:36:34;9.50;99.90
22966;DHT22;11649;48.090;9.754;2023-11-21T12:39:03;9.50;99.90
22966;DHT22;11649;48.090;9.754;2023-11-21T12:41:30;9.40;99.90
22966;DHT22;11649;48.090;9.754;2023-11-21T12:43:58;9.40;99.90
22966;DHT22;11649;48.090;9.754;2023-11-21T12:46:25;9.20;99.90
22966;DHT22;11649;48.090;9.754;2023-11-21T12:48:56;9.20;99.90
22966;DHT22;11649;48.090;9.754;2023-11-21T12:51:24;9.10;99.90
22966;DHT22;11649;48.090;9.754;2023-11-21T12:53:51;9.10;99.90
22966;DHT22;11649;48.090;9.754;2023-11-21T12:56:21;9.10;99.90
22966;DHT22;11649;48.090;9.754;2023-11-21T12:58:50;9.10;99.90
22966;DHT22;11649;48.090;9.754;2023-11-21T13:01:19;9.10;99.90
22966;DHT22;11649;48.090;9.754;2023-11-21T13:03:50;9.00;99.90
22966;DHT22;11649;48.090;9.754;2023-11-21T13:06:18;9.00;99.90
22966;DHT22;11649;48.090;9.754;2023-11-21T13:08:46;8.90;99.90
22966;DHT22;11649;48.090;9.754;2023-11-21T13:11:14;8.90;99.90
22966;DHT22;11649;48.090;9.754;2023-11-21T13:13:42;8.90;99.90
22966;DHT22;11649;48.090;9.754;2023-11-21T13:16:10;8.90;99.90
22966;DHT22;11649;48.090;9.754;2023-11-21T13:18:37;8.90;99.90
22966;DHT22;11649;48.090;9.754;2023-11-21T13:21:09;8.70;99.90
22966;DHT22;11649;48.090;9.754;2023-11-21T13:23:44;8.70;99.90
22966;DHT22;11649;48.090;9.754;2023-11-21T13:26:13;8.90;99.90
22966;DHT22;11649;48.090;9.754;2023-11-21T13:28:41;9.00;99.90
22966;DHT22;11649;48.090;9.754;2023-11-21T13:31:13;9.20;99.90
22966;DHT22;11649;48.090;9.754;2023-11-21T13:33:53;9.30;99.90
22966;DHT22;11649;48.090;9.754;2023-11-21T13:36:30;9.30;99.90
22966;DHT22;11649;48.090;9.754;2023-11-21T13:39:00;9.40;99.90
22966;DHT22;11649;48.090;9.754;2023-11-21T13:41:31;9.40;99.90
22966;DHT22;11649;48.090;9.754;2023-11-21T13:43:58;9.40;99.90
22966;DHT22;11649;48.090;9.754;2023-11-21T13:50:42;9.40;99.90
22966;DHT22;11649;48.090;9.754;2023-11-21T13:53:22;9.50;99.90
22966;DHT22;11649;48.090;9.754;2023-11-21T14:26:13;9.80;99.90
22966;DHT22;11649;48.090;9.754;2023-11-21T14:28:41;9.40;99.90
22966;DHT22;11649;48.090;9.754;2023-11-21T14:31:08;9.30;99.90
22966;DHT22;11649;48.090;9.754;2023-11-21T14:33:41;9.20;99.90
22966;DHT22;11649;48.090;9.754;2023-11-21T14:36:08;9.10;99.90
22966;DHT22;11649;48.090;9.754;2023-11-21T14:38:36;8.90;99.90
22966;DHT22;11649;48.090;9.754;2023-11-21T14:41:06;8.80;99.90
22966;DHT22;11649;48.090;9.754;2023-11-21T14:43:37;8.60;99.90
22966;DHT22;11649;48.090;9.754;2023-11-21T14:46:05;8.50;99.90
22966;DHT22;11649;48.090;9.754;2023-11-21T14:48:36;8.50;99.90
22966;DHT22;11649;48.090;9.754;2023-11-21T14:51:09;8.60;99.90
22966;DHT22;11649;48.090;9.754;2023-11-21T14:53:54;8.60;99.90
22966;DHT22;11649;48.090;9.754;2023-11-21T14:56:21;8.70;99.90
22966;DHT22;11649;48.090;9.754;2023-11-21T14:58:54;8.70;99.90
22966;DHT22;11649;48.090;9.754;2023-11-21T15:01:23;8.60;99.90
22966;DHT22;11649;48.090;9.754;2023-11-21T15:04:09;8.60;99.90
22966;DHT22;11649;48.090;9.754;2023-11-21T15:06:47;8.60;99.90
22966;DHT22;11649;48.090;9.754;2023-11-21T15:09:15;8.50;99.90
22966;DHT22;11649;48.090;9.754;2023-11-21T15:11:41;8.50;99.90
22966;DHT22;11649;48.090;9.754;2023-11-21T15:14:09;8.50;99.90
22966;DHT22;11649;48.090;9.754;2023-11-21T15:31:50;8.50;99.90
22966;DHT22;11649;48.090;9.754;2023-11-21T15:46:30;8.30;99.90
22966;DHT22;11649;48.090;9.754;2023-11-21T15:48:57;8.40;99.90
22966;DHT22;11649;48.090;9.754;2023-11-21T15:51:24;8.40;99.90
22966;DHT22;11649;48.090;9.754;2023-11-21T15:53:51;8.30;99.90
22966;DHT22;11649;48.090;9.754;2023-11-21T15:56:18;8.30;99.90
22966;DHT22;11649;48.090;9.754;2023-11-21T15:58:45;8.30;99.90
22966;DHT22;11649;48.090;9.754;2023-11-21T16:01:16;8.30;99.90
22966;DHT22;11649;48.090;9.754;2023-11-21T16:03:43;8.30;99.90
22966;DHT22;11649;48.090;9.754;2023-11-21T16:06:13;8.30;99.90
22966;DHT22;11649;48.090;9.754;2023-11-21T16:08:39;8.30;99.90
22966;DHT22;11649;48.090;9.754;2023-11-21T16:11:06;8.30;99.90
22966;DHT22;11649;48.090;9.754;2023-11-21T16:13:33;8.30;99.90
22966;DHT22;11649;48.090;9.754;2023-11-21T16:16:01;8.30;99.90
22966;DHT22;11649;48.090;9.754;2023-11-21T16:18:28;8.20;99.90
22966;DHT22;11649;48.090;9.754;2023-11-21T16:20:54;8.10;99.90
22966;DHT22;11649;48.090;9.754;2023-11-21T16:23:21;8.20;99.90
22966;DHT22;11649;48.090;9.754;2023-11-21T16:25:48;8.20;99.90
22966;DHT22;11649;48.090;9.754;2023-11-21T16:28:24;8.30;99.90
22966;DHT22;11649;48.090;9.754;2023-11-21T16:30:51;8.30;99.90
22966;DHT22;11649;48.090;9.754;2023-11-21T16:33:18;8.30;99.90
22966;DHT22;11649;48.090;9.754;2023-11-21T16:35:46;8.20;99.90
22966;DHT22;11649;48.090;9.754;2023-11-21T16:38:14;8.20;99.90
22966;DHT22;11649;48.090;9.754;2023-11-21T16:40:42;8.20;99.90
22966;DHT22;11649;48.090;9.754;2023-11-21T16:43:10;8.30;99.90
22966;DHT22;11649;48.090;9.754;2023-11-21T16:45:37;8.30;99.90
22966;DHT22;11649;48.090;9.754;2023-11-21T16:48:04;8.20;99.90
22966;DHT22;11649;48.090;9.754;2023-11-21T16:50:31;8.10;99.90
22966;DHT22;11649;48.090;9.754;2023-11-21T16:52:57;8.20;99.90
22966;DHT22;11649;48.090;9.754;2023-11-21T16:55:24;8.20;99.90
22966;DHT22;11649;48.090;9.754;2023-11-21T16:57:51;8.20;99.90
22966;DHT22;11649;48.090;9.754;2023-11-21T17:00:18;8.10;99.90
22966;DHT22;11649;48.090;9.754;2023-11-21T17:02:49;7.90;99.90
22966;DHT22;11649;48.090;9.754;2023-11-21T17:05:22;7.60;99.90
22966;DHT22;11649;48.090;9.754;2023-11-21T17:07:49;7.70;99.90
22966;DHT22;11649;48.090;9.754;2023-11-21T17:10:16;7.70;99.90
22966;DHT22;11649;48.090;9.754;2023-11-21T17:12:43;7.60;99.90
22966;DHT22;11649;48.090;9.754;2023-11-21T17:15:10;7.70;99.90
22966;DHT22;11649;48.090;9.754;2023-11-21T17:17:37;7.70;99.90
22966;DHT22;11649;48.090;9.754;2023-11-21T17:20:04;7.80;99.90
22966;DHT22;11649;48.090;9.754;2023-11-21T17:22:34;7.90;99.90
22966;DHT22;11649;48.090;9.754;2023-11-21T17:25:01;7.90;99.90
22966;DHT22;11649;48.090;9.754;2023-11-21T17:27:28;8.00;99.90